Data for 10/13/2016

Time Sea-Level Adjusted Pressure Absolute Pressure Temperature Relative Humidity Dew Point   
(mb) (inHg) (mb) (inHg) (C) (F) (%) (C) (F)
00:05 1020 30.12 849 25.07 2.1 35.8 65 -3.9 25
00:10 1020 30.12 849 25.07 1.8 35.3 63 -4.5 23.9
00:15 1020 30.12 849 25.07 2.2 35.9 60 -4.7 23.5
00:20 1020 30.12 849 25.07 2.4 36.3 59 -4.8 23.4
00:25 1019 30.09 849 25.07 2.5 36.5 58 -4.9 23.1
00:30 1019 30.09 849 25.07 2.9 37.2 53 -5.8 21.5
00:35 1019 30.09 849 25.07 3.7 38.6 51 -5.6 21.9
00:40 1019 30.09 849 25.07 3.8 38.8 50 -5.7 21.8
00:45 1019 30.09 848 25.04 3.8 38.9 53 -5 23.1
00:50 1019 30.09 849 25.07 3.3 37.9 54 -5.2 22.7
00:55 1019 30.09 848 25.04 2.9 37.2 56 -5.1 22.8
01:00 1019 30.09 848 25.04 2.5 36.6 56 -5.3 22.5
01:05 1019 30.09 848 25.04 2.4 36.3 56 -5.4 22.2
01:10 1019 30.09 848 25.04 2.3 36.1 57 -5.3 22.5
01:15 1019 30.09 848 25.04 2.2 35.9 59 -5.1 22.8
01:20 1019 30.09 848 25.04 1.5 34.6 64 -4.6 23.8
01:25 1019 30.09 848 25.04 1.1 34 64 -4.9 23.1
01:30 1019 30.09 848 25.04 1.6 34.9 62 -5 23.1
01:35 1019 30.09 848 25.04 1.8 35.3 61 -4.8 23.3
01:40 1019 30.09 848 25.04 1.8 35.3 59 -5.5 22.2
01:45 1019 30.09 848 25.04 2.2 35.9 58 -5.3 22.5
01:50 1019 30.09 848 25.04 2.2 36 56 -5.7 21.8
01:55 1019 30.09 848 25.04 2.2 35.9 55 -6.1 21.1
02:00 1019 30.09 848 25.04 2.3 36.2 53 -6.3 20.7
02:05 1019 30.09 848 25.04 2.5 36.5 53 -6.2 20.8
02:10 1019 30.09 848 25.04 2.4 36.4 52 -6.4 20.5
02:15 1019 30.09 848 25.04 2.7 36.9 49 -6.8 19.7
02:20 1019 30.09 848 25.04 3.2 37.7 49 -6.5 20.4
02:25 1019 30.09 848 25.04 3.2 37.7 53 -5.6 21.9
02:30 1019 30.09 848 25.04 2.5 36.5 56 -5.3 22.4
02:35 1019 30.09 848 25.04 2 35.6 58 -5.4 22.3
02:40 1019 30.09 848 25.04 1.8 35.2 58 -5.5 22.1
02:45 1019 30.09 848 25.04 2 35.6 56 -5.8 21.5
02:50 1019 30.09 848 25.04 2 35.7 57 -5.5 22
02:55 1019 30.09 848 25.04 1.8 35.2 57 -5.8 21.6
03:00 1019 30.09 848 25.04 1.5 34.7 61 -5.1 22.7
03:05 1019 30.09 848 25.04 1 33.9 59 -6 21.2
03:10 1019 30.09 848 25.04 1.4 34.5 55 -6.7 20
03:15 1019 30.09 848 25.04 1.5 34.7 57 -6.2 20.8
03:20 1019 30.09 848 25.04 1.2 34.1 58 -6.2 20.8
03:25 1019 30.09 848 25.04 0.9 33.6 59 -6.3 20.7
03:30 1019 30.09 848 25.04 0.7 33.2 60 -6.2 20.8
03:35 1019 30.09 848 25.04 0.5 32.9 59 -6.5 20.2
03:40 1019 30.09 848 25.04 0.7 33.3 58 -6.6 20.1
03:45 1019 30.09 848 25.04 0.7 33.3 58 -6.5 20.3
03:50 1019 30.09 848 25.04 0.7 33.2 61 -6.1 21.1
03:55 1019 30.09 848 25.04 0.7 33.2 57 -7 19.5
04:00 1019 30.09 848 25.04 1 33.8 58 -6.3 20.7
04:05 1019 30.09 848 25.04 0.4 32.8 58 -6.8 19.7
04:10 1019 30.09 848 25.04 0.4 32.8 63 -5.9 21.5
04:15 1019 30.09 848 25.04 0.1 32.3 60 -6.8 19.8
04:20 1019 30.09 848 25.04 1.1 33.9 54 -7.1 19.2
04:25 1019 30.09 848 25.04 1.3 34.4 56 -6.5 20.4
04:30 1019 30.09 848 25.04 0.5 32.8 60 -6.5 20.3
04:35 1019 30.09 848 25.04 0.2 32.4 60 -6.6 20.1
04:40 1019 30.09 848 25.04 0 32.1 60 -6.8 19.7
04:45 1019 30.09 848 25.04 0.3 32.5 57 -7.2 19
04:50 1019 30.09 848 25.04 0.5 32.9 57 -7.1 19.2
04:55 1019 30.09 848 25.04 0.5 32.8 59 -6.8 19.8
05:00 1019 30.09 848 25.04 0.1 32.2 60 -6.6 20
05:05 1019 30.09 848 25.04 -0.3 31.5 62 -6.8 19.8
05:10 1019 30.09 848 25.04 -0.2 31.7 62 -6.7 20
05:15 1019 30.09 848 25.04 -0.1 31.8 61 -6.8 19.8
05:20 1019 30.09 848 25.04 0 32 64 -6.1 21
05:25 1019 30.09 848 25.04 -0.4 31.3 64 -6.5 20.4
05:30 1019 30.09 848 25.04 0.1 32.2 60 -6.9 19.6
05:35 1019 30.09 848 25.04 0.9 33.6 56 -6.8 19.7
05:40 1019 30.09 848 25.04 1 33.8 57 -6.5 20.4
05:45 1018 30.06 848 25.04 1 33.7 57 -6.6 20.2
05:50 1018 30.06 848 25.04 1 33.8 57 -6.7 20
05:55 1018 30.06 848 25.04 1.2 34.1 57 -6.5 20.3
06:00 1018 30.06 848 25.04 1 33.9 57 -6.5 20.3
06:05 1018 30.06 848 25.04 1 33.8 56 -6.9 19.6
06:10 1018 30.06 848 25.04 1.1 34 57 -6.5 20.3
06:15 1018 30.06 848 25.04 0.5 33 61 -6.1 21
06:20 1018 30.06 848 25.04 0.1 32.3 61 -6.5 20.2
06:25 1018 30.06 847 25.01 0.3 32.5 59 -6.9 19.6
06:30 1018 30.06 847 25.01 0.7 33.3 58 -6.6 20.2
06:35 1018 30.06 847 25.01 1.1 34 53 -7.4 18.6
06:40 1018 30.06 847 25.01 1.9 35.4 49 -7.7 18.2
06:45 1018 30.06 847 25.01 2.4 36.2 47 -7.8 18
06:50 1018 30.06 847 25.01 2.8 37.1 47 -7.4 18.6
06:55 1018 30.06 847 25.01 3 37.4 48 -7 19.4
07:00 1018 30.06 847 25.01 2.8 37.1 50 -6.5 20.3
07:05 1018 30.06 847 25.01 2.6 36.6 48 -7.3 18.9
07:10 1018 30.06 847 25.01 2.8 37 50 -6.6 20.1
07:15 1018 30.06 847 25.01 2.6 36.7 48 -7.3 18.9
07:20 1018 30.06 847 25.01 2.6 36.7 48 -7.4 18.7
07:25 1018 30.06 847 25.01 2.6 36.7 47 -7.6 18.3
07:30 1018 30.06 847 25.01 2.8 37 47 -7.4 18.7
07:35 1018 30.06 847 25.01 2.2 36 51 -6.8 19.7
07:40 1018 30.06 847 25.01 2.3 36.1 49 -7.5 18.6
07:45 1018 30.06 847 25.01 2.2 35.9 52 -6.6 20.1
07:50 1018 30.06 847 25.01 1.5 34.7 56 -6.4 20.5
07:55 1018 30.06 847 25.01 1.2 34.1 55 -7 19.4
08:00 1018 30.06 847 25.01 1.9 35.5 52 -6.8 19.8
08:05 1018 30.06 847 25.01 2 35.5 50 -7.5 18.5
08:10 1018 30.06 847 25.01 2.9 37.2 46 -7.6 18.2
08:15 1018 30.06 847 25.01 3.3 38 41 -8.6 16.6
08:20 1018 30.06 847 25.01 3.5 38.3 47 -6.9 19.6
08:25 1018 30.06 847 25.01 3.7 38.7 46 -6.9 19.6
08:30 1018 30.06 847 25.01 3.2 37.7 52 -5.8 21.6
08:35 1018 30.06 847 25.01 2 35.5 55 -6.2 20.9
08:40 1017 30.03 847 25.01 2 35.6 54 -6.2 20.8
08:45 1017 30.03 847 25.01 2.8 37.1 50 -6.6 20.2
08:50 1017 30.03 847 25.01 3.6 38.5 44 -7.5 18.5
08:55 1017 30.03 847 25.01 4.3 39.7 44 -7 19.4
09:00 1017 30.03 847 25.01 4.4 39.9 43 -7.1 19.2
09:05 1017 30.03 847 25.01 4.6 40.2 41 -7.5 18.5
09:10 1017 30.03 847 25.01 4.3 39.8 48 -5.7 21.8
09:15 1018 30.06 847 25.01 3.9 39.1 50 -5.5 22
09:20 1018 30.06 847 25.01 4.1 39.4 46 -6.5 20.3
09:25 1018 30.06 847 25.01 4.9 40.8 42 -6.8 19.7
09:30 1018 30.06 847 25.01 5.7 42.3 41 -6.4 20.5
09:35 1018 30.06 847 25.01 6 42.8 42 -5.8 21.5
09:40 1018 30.06 847 25.01 6.2 43.1 42 -5.8 21.6
09:45 1018 30.06 847 25.01 6.6 43.9 41 -5.7 21.7
09:50 1017 30.03 847 25.01 6.9 44.3 41 -5.5 22
09:55 1017 30.03 847 25.01 7.1 44.8 38 -6.1 21
10:00 1017 30.03 847 25.01 7.3 45.2 39 -5.6 21.9
10:05 1017 30.03 847 25.01 7.2 45 40 -5.4 22.3
10:10 1017 30.03 847 25.01 7.9 46.3 38 -5.6 22
10:15 1017 30.03 847 25.01 9.2 48.5 35 -5.6 21.9
10:20 1017 30.03 847 25.01 9.7 49.5 36 -4.6 23.7
10:25 1017 30.03 847 25.01 8.8 47.9 37 -4.9 23.2
10:30 1017 30.03 847 25.01 8.7 47.7 37 -5 22.9
10:35 1017 30.03 846 24.98 9 48.1 35 -5.5 22.1
10:40 1017 30.03 846 24.98 9.3 48.7 35 -5.3 22.5
10:45 1017 30.03 846 24.98 9.8 49.7 34 -5.4 22.3
10:50 1017 30.03 846 24.98 10.1 50.1 34 -5.1 22.9
10:55 1017 30.03 846 24.98 10.5 50.8 33 -5.2 22.7
11:00 1017 30.03 846 24.98 10.7 51.2 34 -4.3 24.2
11:05 1017 30.03 846 24.98 10.7 51.3 34 -4.6 23.7
11:10 1017 30.03 846 24.98 10.6 51 34 -4.7 23.5
11:15 1016 30 846 24.98 11.5 52.6 32 -4.6 23.7
11:20 1016 30 846 24.98 11.4 52.5 33 -4.2 24.4
11:25 1016 30 845 24.95 11.2 52.2 32 -4.8 23.4
11:30 1016 30 845 24.95 11.9 53.4 32 -4.4 24.2
11:35 1016 30 845 24.95 12.5 54.4 30 -4.5 23.9
11:40 1016 30 845 24.95 12.6 54.6 30 -4.6 23.8
11:45 1016 30 845 24.95 13.2 55.7 29 -4.5 23.9
11:50 1016 30 845 24.95 13.4 56.1 27 -5.4 22.3
11:55 1016 30 845 24.95 13.7 56.6 26 -5.3 22.4
12:00 1016 30 845 24.95 14.1 57.3 26 -5 23
12:05 1016 30 845 24.95 14.1 57.3 24 -6.1 21.1
12:10 1016 30 845 24.95 13.8 56.8 27 -5 22.9
12:15 1015 29.97 845 24.95 14.1 57.4 26 -4.9 23.1
12:20 1015 29.97 845 24.95 14.6 58.4 26 -4.8 23.4
12:25 1015 29.97 844 24.92 14.7 58.5 27 -4.2 24.4
12:30 1015 29.97 844 24.92 15 59 23 -5.7 21.8
12:35 1015 29.97 844 24.92 14.6 58.2 27 -3.9 24.9
12:40 1015 29.97 844 24.92 14.3 57.7 25 -5.3 22.4
12:45 1015 29.97 844 24.92 13.9 57.1 27 -4.9 23.1
12:50 1015 29.97 844 24.92 14.2 57.5 28 -4.2 24.4
12:55 1015 29.97 844 24.92 14.9 58.7 28 -3.5 25.6
13:00 1015 29.97 844 24.92 15.3 59.5 26 -4 24.7
13:05 1015 29.97 844 24.92 15.2 59.4 29 -2.4 27.6
13:10 1015 29.97 844 24.92 14.9 58.9 31 -2.1 28.3
13:15 1014 29.94 844 24.92 15.7 60.3 28 -2.4 27.6
13:20 1014 29.94 844 24.92 16 60.7 29 -2 28.4
13:25 1014 29.94 843 24.89 16.6 61.8 31 -0.4 31.2
13:30 1014 29.94 843 24.89 16.4 61.6 27 -2.5 27.5
13:35 1014 29.94 843 24.89 16.7 62 27 -2.2 28
13:40 1014 29.94 843 24.89 16.8 62.3 28 -1.9 28.6
13:45 1014 29.94 843 24.89 16.7 62 29 -1.5 29.3
13:50 1014 29.94 843 24.89 16.5 61.6 29 -1.3 29.6
13:55 1014 29.94 843 24.89 16 60.8 33 -0.3 31.5
14:00 1014 29.94 843 24.89 15.4 59.7 33 -0.7 30.8
14:05 1014 29.94 843 24.89 14.9 58.9 33 -1 30.2
14:10 1014 29.94 843 24.89 14.8 58.7 34 -0.8 30.5
14:15 1014 29.94 843 24.89 14.5 58.1 34 -0.9 30.3
14:20 1014 29.94 843 24.89 14.2 57.5 35 -1.2 29.9
14:25 1014 29.94 843 24.89 14 57.2 36 -0.7 30.8
14:30 1014 29.94 843 24.89 14.1 57.4 37 -0.3 31.5
14:35 1014 29.94 843 24.89 14 57.1 38 -0 31.9
14:40 1014 29.94 843 24.89 13.7 56.6 39 0.1 32.2
14:45 1013 29.91 843 24.89 13.8 56.9 36 -1 30.2
14:50 1013 29.91 843 24.89 13.4 56.2 39 -0.1 31.8
14:55 1013 29.91 843 24.89 13.4 56.1 39 -0.2 31.6
15:00 1013 29.91 842 24.86 13.4 56.1 39 -0.4 31.3
15:05 1013 29.91 842 24.86 13.6 56.5 38 -0.3 31.5
15:10 1013 29.91 842 24.86 13.6 56.4 38 -0.3 31.5
15:15 1013 29.91 842 24.86 13.5 56.4 38 -0.4 31.3
15:20 1013 29.91 842 24.86 13.8 56.8 38 -0.2 31.7
15:25 1013 29.91 842 24.86 13.9 57 37 -0.4 31.2
15:30 1012 29.88 842 24.86 14.1 57.3 37 -0.5 31.1
15:35 1012 29.88 842 24.86 14.4 57.9 36 -0.3 31.4
15:40 1012 29.88 841 24.83 14.7 58.5 35 -0.5 31.2
15:45 1012 29.88 841 24.83 15.1 59.1 37 0.4 32.8
15:50 1012 29.88 841 24.83 15.3 59.5 35 0.2 32.4
15:55 1012 29.88 841 24.83 15.6 60.1 33 -0.6 30.9
16:00 1012 29.88 841 24.83 16 60.8 32 -0.7 30.7
16:05 1012 29.88 841 24.83 16.3 61.3 30 -1.2 29.9
16:10 1012 29.88 841 24.83 16.5 61.7 29 -1.3 29.7
16:15 1012 29.88 841 24.83 16.4 61.5 28 -2.2 28
16:20 1012 29.88 841 24.83 16.5 61.6 29 -1.5 29.4
16:25 1012 29.88 841 24.83 16.3 61.4 30 -1.1 30.1
16:30 1012 29.88 841 24.83 16.3 61.3 31 -0.8 30.6
16:35 1012 29.88 841 24.83 16.3 61.3 29 -1.8 28.7
16:40 1012 29.88 841 24.83 16.3 61.4 30 -1.4 29.5
16:45 1011 29.85 841 24.83 16.4 61.6 27 -2.8 27
16:50 1011 29.85 841 24.83 16.5 61.6 27 -2.5 27.5
16:55 1011 29.85 840 24.81 16.5 61.6 27 -2.4 27.8
17:00 1011 29.85 840 24.81 16.6 61.9 26 -3 26.7
17:05 1011 29.85 840 24.81 16.8 62.2 24 -3.6 25.5
17:10 1011 29.85 840 24.81 16.9 62.4 23 -4.4 24
17:15 1011 29.85 841 24.83 17 62.6 23 -4.2 24.4
17:20 1011 29.85 841 24.83 17 62.5 27 -2.2 28
17:25 1012 29.88 841 24.83 16.8 62.2 29 -1.5 29.3
17:30 1012 29.88 841 24.83 16.4 61.6 29 -1.4 29.4
17:35 1012 29.88 841 24.83 16.2 61.1 32 -0.6 30.9
17:40 1012 29.88 841 24.83 15.9 60.6 32 -0.8 30.5
17:45 1012 29.88 841 24.83 15.6 60.1 32 -0.8 30.6
17:50 1012 29.88 841 24.83 15.4 59.8 34 -0.4 31.2
17:55 1012 29.88 841 24.83 15.3 59.5 33 -0.7 30.7
18:00 1012 29.88 841 24.83 15.1 59.2 32 -1.4 29.6
18:05 1012 29.88 841 24.83 15.1 59.2 32 -1.5 29.4
18:10 1011 29.85 841 24.83 15.2 59.3 33 -1 30.2
18:15 1011 29.85 841 24.83 14.9 58.9 34 -0.8 30.6
18:20 1011 29.85 841 24.83 15 59.1 28 -3.1 26.5
18:25 1011 29.85 840 24.81 16.1 60.9 25 -3.8 25.2
18:30 1011 29.85 840 24.81 16.3 61.4 26 -3.4 25.9
18:35 1011 29.85 840 24.81 16.2 61.1 27 -2.8 27
18:40 1011 29.85 840 24.81 15.7 60.3 28 -2.5 27.4
18:45 1011 29.85 841 24.83 15.5 60 26 -4 24.8
18:50 1011 29.85 841 24.83 16 60.8 26 -3.6 25.6
18:55 1011 29.85 841 24.83 16 60.8 26 -3.6 25.4
19:00 1011 29.85 841 24.83 16.1 61 25 -3.9 24.9
19:05 1011 29.85 841 24.83 16.1 61 26 -3.6 25.6
19:10 1011 29.85 841 24.83 16 60.9 25 -3.9 25.1
19:15 1011 29.85 840 24.81 16 60.7 25 -3.7 25.3
19:20 1011 29.85 841 24.83 15.8 60.5 26 -3.7 25.3
19:25 1011 29.85 841 24.83 15.8 60.4 26 -3.8 25.2
19:30 1012 29.88 841 24.83 15.7 60.2 27 -3.2 26.3
19:35 1011 29.85 841 24.83 15.4 59.6 27 -3.5 25.7
19:40 1011 29.85 841 24.83 15.4 59.7 27 -3.4 25.9
19:45 1011 29.85 840 24.81 15.3 59.6 28 -3.2 26.2
19:50 1011 29.85 840 24.81 15.3 59.6 27 -3.5 25.7
19:55 1011 29.85 840 24.81 15.3 59.6 28 -3.2 26.3
20:00 1011 29.85 840 24.81 15.6 60 26 -3.8 25.2
20:05 1011 29.85 840 24.81 15.6 60 27 -3.3 26
20:10 1011 29.85 840 24.81 15.4 59.8 27 -3.4 26
20:15 1011 29.85 840 24.81 15.5 59.8 27 -3.2 26.2
20:20 1011 29.85 840 24.81 15.5 59.9 27 -3.3 26
20:25 1011 29.85 840 24.81 15.6 60.2 27 -3.3 26.1
20:30 1011 29.85 840 24.81 15.5 59.9 26 -4 24.9
20:35 1011 29.85 840 24.81 16 60.8 25 -3.8 25.2
20:40 1011 29.85 840 24.81 16 60.8 26 -3.3 26.1
20:45 1011 29.85 840 24.81 15.7 60.3 26 -3.5 25.7
20:50 1011 29.85 840 24.81 15.5 59.9 27 -3.4 25.8
20:55 1011 29.85 840 24.81 15.4 59.8 27 -3.3 26
21:00 1011 29.85 840 24.81 15.3 59.5 27 -3.3 26
21:05 1011 29.85 840 24.81 15.1 59.2 28 -3.2 26.2
21:10 1010 29.83 840 24.81 15 59.1 28 -3.2 26.3
21:15 1010 29.83 840 24.81 14.9 58.8 29 -3 26.6
21:20 1010 29.83 840 24.81 14.8 58.6 29 -2.9 26.7
21:25 1010 29.83 840 24.81 14.7 58.4 29 -3.3 26.1
21:30 1010 29.83 839 24.78 14.8 58.6 28 -3.5 25.6
21:35 1010 29.83 840 24.81 15 58.9 29 -2.8 27
21:40 1010 29.83 839 24.78 14.9 58.9 29 -2.9 26.8
21:45 1010 29.83 839 24.78 14.8 58.6 30 -2.8 27
21:50 1010 29.83 839 24.78 15.5 59.8 27 -3.4 25.8
21:55 1010 29.83 839 24.78 15.8 60.4 28 -2.6 27.3
22:00 1010 29.83 839 24.78 15.8 60.4 27 -3 26.6
22:05 1010 29.83 839 24.78 15.9 60.6 28 -2.3 27.8
22:10 1010 29.83 839 24.78 15.7 60.3 29 -2.2 28.1
22:15 1010 29.83 839 24.78 15.6 60 29 -2.1 28.3
22:20 1010 29.83 839 24.78 15.7 60.3 29 -2.2 28.1
22:25 1010 29.83 840 24.81 15.6 60.1 30 -1.9 28.5
22:30 1010 29.83 839 24.78 15.7 60.2 30 -1.8 28.8
22:35 1010 29.83 839 24.78 15.5 59.9 30 -2.1 28.3
22:40 1010 29.83 839 24.78 15.9 60.7 29 -2 28.5
22:45 1010 29.83 839 24.78 16 60.8 30 -1.7 29
22:50 1010 29.83 839 24.78 16.1 61.1 28 -2.2 28.1
22:55 1010 29.83 839 24.78 16.2 61.2 29 -1.8 28.7
23:00 1010 29.83 839 24.78 16.1 60.9 29 -1.9 28.6
23:05 1010 29.83 839 24.78 16.2 61.2 29 -1.8 28.8
23:10 1010 29.83 839 24.78 16.2 61.2 29 -1.8 28.8
23:15 1010 29.83 839 24.78 16.2 61.1 30 -1.3 29.6
23:20 1010 29.83 839 24.78 15.9 60.7 31 -1.1 30
23:25 1010 29.83 839 24.78 15.9 60.7 32 -0.7 30.7
23:30 1010 29.83 840 24.81 16 60.7 32 -0.8 30.5
23:35 1010 29.83 839 24.78 16.2 61.1 31 -0.9 30.5
23:40 1010 29.83 839 24.78 16.1 61 32 -0.6 30.9
23:45 1010 29.83 839 24.78 16.1 60.9 31 -0.8 30.6
23:50 1010 29.83 839 24.78 15.9 60.6 32 -0.7 30.8
23:55 1010 29.83 839 24.78 15.7 60.2 33 -0.5 31.1
24:00 1010 29.83 839 24.78 15.6 60 32 -0.9 30.4